Time;durP1;ratioP1;P1;durP2;ratioP2;P2;SDS_P1;SDS_P2;PMS_P1;PMS_P2;Temp;Humidity;BMP_temperature;BMP_pressure;BME280_temperature;BME280_humidity;BME280_pressure;Samples;Min_cycle;Max_cycle;Signal;HPM_P1;HPM_P2
2023/09/05 00:01:30;;;;;;;5.13;2.78;;;20.60;99.90;;;;;;5016875;28;20033;-52
2023/09/05 00:03:57;;;;;;;4.13;2.65;;;20.60;99.90;;;;;;5016367;28;20121;-53
2023/09/05 00:06:24;;;;;;;4.40;2.95;;;20.60;99.90;;;;;;5016538;28;20034;-51
2023/09/05 00:08:50;;;;;;;3.85;2.63;;;20.60;99.90;;;;;;5016855;28;20034;-54
2023/09/05 00:11:16;;;;;;;4.30;2.78;;;20.60;99.90;;;;;;5025138;28;20132;-53
2023/09/05 00:13:42;;;;;;;3.97;2.85;;;20.50;99.90;;;;;;5035577;28;20145;-55
2023/09/05 00:16:08;;;;;;;8.05;4.13;;;20.50;99.90;;;;;;4991297;28;20037;-54
2023/09/05 00:18:34;;;;;;;3.83;2.63;;;20.40;99.90;;;;;;5005685;28;20044;-53
2023/09/05 00:20:59;;;;;;;6.65;3.05;;;20.10;99.90;;;;;;5026803;28;20229;-55
2023/09/05 00:23:25;;;;;;;5.93;4.00;;;20.10;99.90;;;;;;5006480;28;20176;-54
2023/09/05 00:25:51;;;;;;;5.60;3.00;;;20.20;99.90;;;;;;5025339;28;20087;-52
2023/09/05 00:28:20;;;;;;;5.18;3.47;;;20.30;99.90;;;;;;5026646;28;20466;-52
2023/09/05 00:30:46;;;;;;;9.63;5.10;;;20.20;99.90;;;;;;5006946;28;20475;-52
2023/09/05 00:33:12;;;;;;;6.03;3.45;;;20.20;99.90;;;;;;5025305;28;20080;-54
2023/09/05 00:35:38;;;;;;;5.30;3.67;;;20.10;99.90;;;;;;5026266;28;20076;-54
2023/09/05 00:38:04;;;;;;;4.95;3.72;;;20.10;99.90;;;;;;5032805;28;20025;-54
2023/09/05 00:40:30;;;;;;;4.93;3.60;;;20.10;99.90;;;;;;5035023;28;20029;-52
2023/09/05 00:42:56;;;;;;;5.72;3.33;;;20.10;99.90;;;;;;5035065;28;20033;-54
2023/09/05 00:45:22;;;;;;;7.38;3.13;;;20.10;99.90;;;;;;5035166;28;20114;-52
2023/09/05 00:47:48;;;;;;;5.45;3.30;;;20.00;99.90;;;;;;5035614;28;20069;-54
2023/09/05 00:50:18;;;;;;;6.22;3.30;;;20.00;99.90;;;;;;5035775;28;20071;-52
2023/09/05 00:52:47;;;;;;;6.53;3.38;;;20.00;99.90;;;;;;5035626;28;20068;-53
2023/09/05 00:55:14;;;;;;;4.97;3.00;;;20.00;99.90;;;;;;4999837;28;20033;-52
2023/09/05 00:57:41;;;;;;;5.88;3.55;;;20.00;99.90;;;;;;5035271;28;20590;-54
2023/09/05 01:00:10;;;;;;;3.63;2.85;;;19.90;99.90;;;;;;5035335;28;20112;-52
2023/09/05 01:02:37;;;;;;;5.53;3.13;;;20.00;99.90;;;;;;5035491;28;20094;-53
2023/09/05 01:05:05;;;;;;;9.10;3.30;;;19.90;99.90;;;;;;5035454;28;20042;-54
2023/09/05 01:07:56;;;;;;;4.45;3.35;;;19.50;99.90;;;;;;5016767;28;20037;-51
2023/09/05 01:10:28;;;;;;;4.43;3.40;;;19.50;99.90;;;;;;5035281;28;20045;-54
2023/09/05 01:12:57;;;;;;;5.35;3.65;;;19.40;99.90;;;;;;5035330;28;20412;-54
2023/09/05 01:15:23;;;;;;;5.35;3.60;;;19.40;99.90;;;;;;5035509;28;20044;-54
2023/09/05 01:17:50;;;;;;;9.77;3.45;;;19.40;99.90;;;;;;5035391;28;20025;-54
2023/09/05 01:20:18;;;;;;;7.55;3.83;;;19.40;99.90;;;;;;5016651;28;20045;-54
2023/09/05 01:22:58;;;;;;;6.38;4.10;;;19.20;99.90;;;;;;5034901;28;20045;-54
2023/09/05 01:25:24;;;;;;;7.07;4.22;;;19.20;99.90;;;;;;5000113;28;20029;-53
2023/09/05 01:27:50;;;;;;;9.57;3.60;;;19.00;99.90;;;;;;5034646;28;20085;-53
2023/09/05 01:30:16;;;;;;;8.45;4.35;;;18.90;99.90;;;;;;5000173;28;20412;-52
2023/09/05 01:32:43;;;;;;;7.82;3.42;;;18.70;99.90;;;;;;5034924;28;20029;-53
2023/09/05 01:35:09;;;;;;;4.38;3.33;;;18.90;99.90;;;;;;4999862;28;20088;-53
2023/09/05 01:37:35;;;;;;;4.05;3.30;;;18.90;99.90;;;;;;5034835;28;20037;-52
2023/09/05 01:40:01;;;;;;;5.63;3.80;;;18.80;99.90;;;;;;5034612;28;20049;-50
2023/09/05 01:42:26;;;;;;;5.63;3.58;;;18.90;99.90;;;;;;5034545;28;20373;-52
2023/09/05 01:44:52;;;;;;;5.90;4.00;;;19.00;99.90;;;;;;5034595;28;20034;-52
2023/09/05 01:47:18;;;;;;;4.53;3.38;;;18.90;99.90;;;;;;5016103;28;20542;-53
2023/09/05 01:49:43;;;;;;;4.45;3.30;;;18.90;99.90;;;;;;5034459;28;20025;-51
2023/09/05 01:52:09;;;;;;;4.10;3.22;;;18.80;99.90;;;;;;5034239;28;20025;-50
2023/09/05 01:54:39;;;;;;;7.80;3.85;;;18.80;99.90;;;;;;5016211;28;20037;-51
2023/09/05 01:57:05;;;;;;;6.13;3.50;;;18.70;99.90;;;;;;5034742;28;20082;-50
2023/09/05 01:59:31;;;;;;;4.78;2.83;;;;;;;;;;5034341;28;20112;-54
2023/09/05 02:01:57;;;;;;;6.05;3.67;;;18.40;99.90;;;;;;5034129;28;20024;-52
2023/09/05 02:04:23;;;;;;;4.32;3.60;;;18.50;99.90;;;;;;5015963;28;20041;-51
2023/09/05 02:06:48;;;;;;;5.70;3.60;;;18.40;99.90;;;;;;5015987;28;20049;-53
2023/09/05 02:09:14;;;;;;;5.40;3.88;;;18.40;99.90;;;;;;4982959;28;20057;-50
2023/09/05 02:11:40;;;;;;;9.45;3.90;;;18.40;99.90;;;;;;5034079;28;20029;-54
2023/09/05 02:14:06;;;;;;;4.70;3.20;;;18.40;99.90;;;;;;5033789;28;20029;-53
2023/09/05 02:16:33;;;;;;;3.63;3.20;;;18.40;99.90;;;;;;5034175;28;20034;-54
2023/09/05 02:18:58;;;;;;;5.25;3.50;;;18.40;99.90;;;;;;5015280;28;20044;-51
2023/09/05 02:21:24;;;;;;;6.05;3.75;;;18.30;99.90;;;;;;5033358;28;20026;-50
2023/09/05 02:23:50;;;;;;;5.47;3.20;;;18.30;99.90;;;;;;5033730;28;20044;-52
2023/09/05 02:26:16;;;;;;;5.38;3.40;;;18.30;99.90;;;;;;5015346;28;20062;-51
2023/09/05 02:28:41;;;;;;;7.60;4.97;;;18.10;99.90;;;;;;5033936;28;20064;-52
2023/09/05 02:31:08;;;;;;;7.60;4.50;;;18.20;99.90;;;;;;4998937;28;20049;-53
2023/09/05 02:33:36;;;;;;;7.68;4.40;;;18.20;99.90;;;;;;4982609;28;20361;-52
2023/09/05 02:36:15;;;;;;;7.18;4.35;;;18.30;99.90;;;;;;5033480;28;20034;-51
2023/09/05 02:38:42;;;;;;;5.43;4.18;;;18.40;99.90;;;;;;5033541;28;20033;-51
2023/09/05 02:41:11;;;;;;;5.97;3.95;;;18.50;99.90;;;;;;5033361;28;20033;-54
2023/09/05 02:43:37;;;;;;;4.88;3.97;;;18.50;99.90;;;;;;5033342;28;20064;-53
2023/09/05 02:46:02;;;;;;;7.72;3.72;;;18.50;99.90;;;;;;5032855;28;20033;-51
2023/09/05 02:48:28;;;;;;;6.22;3.55;;;18.50;99.90;;;;;;5013964;28;20113;-50
2023/09/05 02:51:05;;;;;;;4.43;2.90;;;18.40;99.90;;;;;;4995467;28;20478;-51
2023/09/05 02:53:32;;;;;;;6.35;3.35;;;18.40;99.90;;;;;;5011630;28;20041;-53
2023/09/05 02:55:58;;;;;;;5.82;2.88;;;18.40;99.90;;;;;;5018445;28;20075;-52
2023/09/05 02:58:26;;;;;;;6.53;3.50;;;18.30;99.90;;;;;;5014009;28;20045;-51
2023/09/05 03:00:57;;;;;;;4.45;3.10;;;18.30;99.90;;;;;;5032762;28;20048;-53
2023/09/05 03:03:22;;;;;;;8.40;3.53;;;18.30;99.90;;;;;;5014077;28;20042;-51
2023/09/05 03:05:49;;;;;;;6.97;3.03;;;;;;;;;;5030258;28;20021;-52
2023/09/05 03:08:15;;;;;;;8.93;3.05;;;;;;;;;;5033182;28;20032;-51
2023/09/05 03:10:40;;;;;;;5.45;3.47;;;18.20;99.90;;;;;;5033408;28;20033;-52
2023/09/05 03:13:06;;;;;;;7.32;3.42;;;18.20;99.90;;;;;;5033107;28;20065;-55
2023/09/05 03:15:32;;;;;;;6.95;3.78;;;18.20;99.90;;;;;;5014749;28;20038;-50
2023/09/05 03:17:57;;;;;;;4.13;2.90;;;18.30;99.90;;;;;;5033092;28;20477;-51
2023/09/05 03:20:25;;;;;;;4.72;3.20;;;18.30;99.90;;;;;;5033255;28;20025;-51
2023/09/05 03:22:52;;;;;;;3.70;3.03;;;;;;;;;;5014765;28;20493;-51
2023/09/05 03:25:18;;;;;;;4.13;3.35;;;;;;;;;;5032649;28;20057;-52
2023/09/05 03:27:45;;;;;;;8.80;3.85;;;;;;;;;;5032829;28;20045;-51
2023/09/05 03:30:11;;;;;;;4.13;3.20;;;18.20;99.90;;;;;;5031833;28;20048;-51
2023/09/05 03:32:38;;;;;;;5.75;3.15;;;17.90;99.90;;;;;;5018496;28;20040;-52
2023/09/05 03:35:05;;;;;;;5.70;3.30;;;17.90;99.90;;;;;;5036603;28;20025;-51
2023/09/05 03:37:31;;;;;;;5.75;3.90;;;18.00;99.90;;;;;;5017887;28;20068;-52
2023/09/05 03:39:56;;;;;;;11.57;3.90;;;18.00;99.90;;;;;;5036220;28;20034;-51
2023/09/05 03:42:22;;;;;;;6.07;3.50;;;18.10;99.90;;;;;;5036563;28;20535;-53
2023/09/05 03:44:48;;;;;;;3.95;3.45;;;18.10;99.90;;;;;;5018300;28;20073;-52
2023/09/05 03:47:14;;;;;;;6.47;3.65;;;18.10;99.90;;;;;;5037115;28;20033;-51
2023/09/05 03:49:40;;;;;;;7.03;3.22;;;18.10;99.90;;;;;;5036514;28;20034;-51
2023/09/05 03:52:05;;;;;;;8.27;3.47;;;18.10;99.90;;;;;;5018338;28;20090;-53
2023/09/05 03:54:31;;;;;;;6.45;3.70;;;18.10;99.90;;;;;;5036535;28;20388;-51
2023/09/05 03:56:57;;;;;;;6.07;3.70;;;18.20;99.90;;;;;;5036480;28;20033;-51
2023/09/05 03:59:23;;;;;;;4.82;3.35;;;18.10;99.90;;;;;;5034787;28;20048;-52
2023/09/05 04:01:51;;;;;;;5.97;3.28;;;18.00;99.90;;;;;;5036437;28;20037;-50
2023/09/05 04:04:17;;;;;;;5.35;3.42;;;18.00;99.90;;;;;;5036488;28;20048;-53
2023/09/05 04:06:43;;;;;;;5.65;3.70;;;17.90;99.90;;;;;;5036140;28;20033;-52
2023/09/05 04:09:08;;;;;;;5.65;3.10;;;18.00;99.90;;;;;;5018073;28;20041;-51
2023/09/05 04:11:34;;;;;;;3.38;2.83;;;18.00;99.90;;;;;;5036362;28;20040;-53
2023/09/05 04:14:00;;;;;;;12.88;4.05;;;18.00;99.90;;;;;;5036330;28;20037;-53
2023/09/05 04:16:26;;;;;;;7.40;3.25;;;18.00;99.90;;;;;;5036049;28;20026;-51
2023/09/05 04:18:51;;;;;;;7.90;3.30;;;18.00;99.90;;;;;;5035725;28;20116;-51
2023/09/05 04:21:17;;;;;;;4.25;3.30;;;18.00;99.90;;;;;;5036353;28;20037;-55
2023/09/05 04:23:43;;;;;;;5.40;3.20;;;17.90;99.90;;;;;;5035791;28;20033;-51
2023/09/05 04:26:09;;;;;;;5.55;3.33;;;17.90;99.90;;;;;;5035593;28;20045;-51
2023/09/05 04:28:34;;;;;;;6.38;3.95;;;18.00;99.90;;;;;;5035828;28;20057;-52
2023/09/05 04:31:05;;;;;;;8.13;4.10;;;18.00;99.90;;;;;;5017683;28;20057;-52
2023/09/05 04:33:37;;;;;;;6.53;4.18;;;18.00;99.90;;;;;;5017384;28;20084;-53
2023/09/05 04:36:07;;;;;;;7.25;3.65;;;18.10;99.90;;;;;;5035643;28;20500;-54
2023/09/05 04:38:32;;;;;;;5.63;3.53;;;18.00;99.90;;;;;;5035715;28;20029;-52
2023/09/05 04:41:02;;;;;;;4.85;3.25;;;18.20;99.90;;;;;;5035750;28;20036;-52
2023/09/05 04:43:29;;;;;;;4.38;3.17;;;18.20;99.90;;;;;;5034652;28;20041;-51
2023/09/05 04:45:56;;;;;;;4.45;2.92;;;18.00;99.90;;;;;;5035553;28;20037;-52
2023/09/05 04:48:22;;;;;;;5.32;3.53;;;18.20;99.90;;;;;;5001136;28;20473;-50
2023/09/05 04:50:48;;;;;;;9.20;3.65;;;18.10;99.90;;;;;;5035683;28;20446;-54
2023/09/05 04:53:14;;;;;;;6.55;4.40;;;18.20;99.90;;;;;;5017196;28;20076;-52
2023/09/05 04:55:44;;;;;;;6.20;3.80;;;18.10;99.90;;;;;;5035296;28;20366;-53
2023/09/05 04:58:12;;;;;;;6.10;3.35;;;18.20;99.90;;;;;;5035104;28;20048;-54
2023/09/05 05:00:38;;;;;;;5.10;3.40;;;18.30;99.90;;;;;;5035089;28;20124;-53
2023/09/05 05:03:04;;;;;;;6.43;3.67;;;18.30;99.90;;;;;;5035359;28;20095;-53
2023/09/05 05:05:30;;;;;;;4.80;3.35;;;18.40;99.90;;;;;;5035413;28;20037;-53
2023/09/05 05:07:56;;;;;;;6.53;4.10;;;18.30;99.90;;;;;;5035061;28;20033;-53
2023/09/05 05:10:21;;;;;;;6.88;3.53;;;18.30;99.90;;;;;;5035520;28;20037;-50
2023/09/05 05:12:47;;;;;;;5.25;3.50;;;18.40;99.90;;;;;;5035589;28;20114;-52
2023/09/05 05:15:13;;;;;;;4.20;3.47;;;18.50;99.90;;;;;;5035172;28;20037;-51
2023/09/05 05:17:39;;;;;;;3.78;3.33;;;18.40;99.90;;;;;;5035196;28;20084;-51
2023/09/05 05:20:06;;;;;;;5.72;3.13;;;18.50;99.90;;;;;;5035308;28;20044;-52
2023/09/05 05:22:32;;;;;;;3.88;3.20;;;18.70;99.90;;;;;;5016651;28;20049;-54
2023/09/05 05:24:58;;;;;;;4.88;3.13;;;18.60;99.90;;;;;;5034951;28;20546;-54
2023/09/05 05:27:25;;;;;;;6.03;3.75;;;18.70;99.90;;;;;;5035136;28;20085;-51
2023/09/05 05:29:52;;;;;;;7.10;3.60;;;18.70;99.90;;;;;;5034962;28;20065;-52
2023/09/05 05:32:18;;;;;;;4.53;3.55;;;18.60;99.90;;;;;;5034979;28;20032;-53
2023/09/05 05:34:48;;;;;;;6.75;3.65;;;18.70;99.90;;;;;;5035147;28;20030;-51
2023/09/05 05:37:16;;;;;;;5.63;3.55;;;18.80;99.90;;;;;;5034468;28;20035;-51
2023/09/05 05:39:42;;;;;;;4.50;3.42;;;18.80;99.90;;;;;;5034565;28;20038;-53
2023/09/05 05:42:07;;;;;;;5.18;3.38;;;18.90;99.90;;;;;;5034653;28;20040;-52
2023/09/05 05:44:33;;;;;;;5.68;3.80;;;18.90;99.90;;;;;;5034424;28;20034;-53
2023/09/05 05:46:59;;;;;;;4.60;3.67;;;18.90;99.90;;;;;;5034328;28;20087;-52
2023/09/05 05:49:28;;;;;;;8.93;5.18;;;19.00;99.90;;;;;;5034344;28;20065;-51
2023/09/05 05:51:56;;;;;;;7.75;4.50;;;19.00;99.90;;;;;;5034226;28;20069;-52
2023/09/05 05:54:22;;;;;;;6.70;4.10;;;19.00;99.90;;;;;;4999322;28;20052;-53
2023/09/05 05:56:50;;;;;;;5.35;3.92;;;19.10;99.90;;;;;;5034169;28;20041;-52
2023/09/05 05:59:16;;;;;;;7.55;4.35;;;19.40;99.90;;;;;;5034181;28;20575;-53
2023/09/05 06:01:42;;;;;;;5.65;3.17;;;19.70;99.90;;;;;;5015960;28;20148;-53
2023/09/05 06:04:07;;;;;;;7.55;3.47;;;19.70;99.90;;;;;;5015543;28;20049;-51
2023/09/05 06:06:33;;;;;;;5.63;3.20;;;19.70;99.90;;;;;;5015696;28;20120;-52
2023/09/05 06:08:59;;;;;;;5.38;3.38;;;19.60;99.90;;;;;;5034562;28;20033;-52
2023/09/05 06:11:25;;;;;;;5.82;3.38;;;19.50;99.90;;;;;;5015629;28;20052;-53
2023/09/05 06:13:52;;;;;;;4.95;3.45;;;19.70;99.90;;;;;;5033916;28;20524;-51
2023/09/05 06:16:18;;;;;;;4.90;3.30;;;19.80;99.90;;;;;;5034046;28;20037;-52
2023/09/05 06:18:44;;;;;;;7.90;3.15;;;20.00;99.90;;;;;;5034050;28;20413;-54
2023/09/05 06:21:10;;;;;;;4.22;3.13;;;20.00;99.90;;;;;;5033959;28;20086;-53
2023/09/05 06:23:36;;;;;;;7.10;3.63;;;20.10;99.90;;;;;;5033719;28;20374;-54
2023/09/05 06:26:01;;;;;;;5.07;3.60;;;20.20;99.90;;;;;;5015482;28;20077;-53
2023/09/05 06:28:27;;;;;;;5.63;3.20;;;20.30;99.90;;;;;;5033679;28;20546;-54
2023/09/05 06:30:59;;;;;;;4.80;3.17;;;20.50;99.90;;;;;;5033597;28;20116;-52
2023/09/05 06:33:28;;;;;;;4.60;3.75;;;20.60;99.90;;;;;;5033791;28;20030;-52
2023/09/05 06:35:54;;;;;;;5.43;3.30;;;20.70;99.90;;;;;;5015103;28;20037;-51
2023/09/05 06:38:23;;;;;;;4.72;3.30;;;21.00;99.90;;;;;;5033875;28;20033;-55
2023/09/05 06:40:50;;;;;;;5.68;3.75;;;21.00;99.90;;;;;;5034015;28;20044;-53
2023/09/05 06:43:15;;;;;;;6.10;3.75;;;21.10;99.90;;;;;;5015169;28;20115;-53
2023/09/05 06:45:41;;;;;;;7.93;3.63;;;21.10;99.90;;;;;;5033635;28;20480;-54
2023/09/05 06:48:07;;;;;;;6.80;3.78;;;;;;;;;;5015063;28;20052;-50
2023/09/05 06:50:33;;;;;;;6.47;3.70;;;;;;;;;;5033542;28;20025;-53
2023/09/05 06:52:59;;;;;;;7.70;4.18;;;20.90;99.90;;;;;;5033405;28;20029;-51
2023/09/05 06:55:28;;;;;;;7.25;3.97;;;;;;;;;;5033050;28;20377;-51
2023/09/05 06:57:54;;;;;;;5.95;4.22;;;;;;;;;;5033194;28;20507;-51
2023/09/05 07:00:25;;;;;;;8.35;3.95;;;;;;;;;;5032679;28;20035;-51
2023/09/05 07:02:51;;;;;;;6.10;4.57;;;;;;;;;;5014291;28;20080;-50
2023/09/05 07:05:17;;;;;;;5.40;3.65;;;;;;;;;;5032458;28;20172;-53
2023/09/05 07:07:44;;;;;;;5.43;3.65;;;;;;;;;;5014931;28;20033;-51
2023/09/05 07:10:10;;;;;;;4.90;3.83;;;;;;;;;;5033386;28;20036;-52
2023/09/05 07:12:36;;;;;;;6.65;4.05;;;;;;;;;;5015002;28;20041;-51
2023/09/05 07:15:02;;;;;;;7.28;4.05;;;;;;;;;;5033183;28;20114;-52
2023/09/05 07:17:28;;;;;;;4.88;4.30;;;;;;;;;;5033174;28;20037;-53
2023/09/05 07:19:54;;;;;;;6.68;4.25;;;;;;;;;;5033344;28;20033;-53
2023/09/05 07:22:22;;;;;;;6.15;3.85;;;;;;;;;;5014829;28;20162;-51
2023/09/05 07:24:48;;;;;;;6.18;4.47;;;;;;;;;;5015013;28;20440;-50
2023/09/05 07:27:15;;;;;;;7.22;4.80;;;;;;;;;;5032834;28;20057;-50
2023/09/05 07:29:41;;;;;;;4.18;3.78;;;21.90;99.90;;;;;;5032899;28;20128;-52
2023/09/05 07:32:07;;;;;;;7.45;4.25;;;22.20;99.90;;;;;;5032720;28;20073;-52
2023/09/05 07:34:33;;;;;;;4.70;3.42;;;22.30;99.90;;;;;;5032797;28;20370;-51
2023/09/05 07:36:59;;;;;;;7.13;4.40;;;22.50;99.90;;;;;;5033141;28;20079;-50
2023/09/05 07:39:25;;;;;;;5.75;4.07;;;22.60;99.90;;;;;;5032280;28;20382;-53
2023/09/05 07:41:51;;;;;;;7.47;4.30;;;22.90;99.90;;;;;;5033288;28;20040;-53
2023/09/05 07:44:17;;;;;;;4.80;4.30;;;;;;;;;;5032989;28;20077;-52
2023/09/05 07:46:42;;;;;;;6.18;4.22;;;23.20;99.90;;;;;;5032725;28;20021;-52
2023/09/05 07:49:08;;;;;;;7.03;4.30;;;23.50;99.90;;;;;;5032397;28;20040;-53
2023/09/05 07:51:34;;;;;;;5.90;4.47;;;;;;;;;;5032925;28;20474;-52
2023/09/05 07:54:03;;;;;;;5.10;4.15;;;;;;;;;;5032726;28;20109;-53
2023/09/05 07:56:29;;;;;;;5.20;4.00;;;23.30;99.90;;;;;;5032592;28;20037;-52
2023/09/05 07:58:55;;;;;;;9.60;4.25;;;23.40;99.90;;;;;;5032497;28;20034;-54
2023/09/05 08:01:21;;;;;;;7.60;3.70;;;23.40;99.90;;;;;;5033145;28;20037;-51
2023/09/05 08:03:47;;;;;;;9.18;4.13;;;23.40;99.90;;;;;;5014354;28;20156;-52
2023/09/05 08:06:13;;;;;;;6.07;4.15;;;23.20;99.90;;;;;;5014231;28;20079;-52
2023/09/05 08:08:39;;;;;;;9.00;4.88;;;23.40;99.90;;;;;;5032766;28;20047;-52
2023/09/05 08:11:05;;;;;;;5.55;4.55;;;23.50;99.90;;;;;;5032600;28;20029;-51
2023/09/05 08:13:31;;;;;;;5.57;4.05;;;23.50;99.90;;;;;;5032680;28;20129;-53
2023/09/05 08:15:57;;;;;;;10.23;4.50;;;23.30;99.90;;;;;;5032773;28;20061;-51
2023/09/05 08:18:22;;;;;;;6.22;4.63;;;23.30;99.90;;;;;;5015849;28;20050;-53
2023/09/05 08:20:48;;;;;;;6.18;3.97;;;23.50;99.90;;;;;;5035921;28;20079;-52
2023/09/05 08:23:14;;;;;;;8.50;4.63;;;23.80;99.90;;;;;;5036197;28;20120;-54
2023/09/05 08:25:40;;;;;;;6.85;4.45;;;;;;;;;;5035708;28;20041;-52
2023/09/05 08:28:06;;;;;;;5.32;4.75;;;;;;;;;;5017853;28;20477;-53
2023/09/05 08:30:32;;;;;;;5.28;4.00;;;;;;;;;;5017693;28;20034;-53
2023/09/05 08:33:02;;;;;;;5.88;4.20;;;24.20;99.90;;;;;;5036438;28;20052;-51
2023/09/05 08:35:28;;;;;;;7.50;4.25;;;24.30;99.90;;;;;;5036133;28;20033;-50
2023/09/05 08:37:55;;;;;;;6.10;4.60;;;;;;;;;;5035525;28;20036;-52
2023/09/05 08:40:22;;;;;;;5.82;3.40;;;25.00;99.90;;;;;;5035545;28;20030;-52
2023/09/05 08:42:50;;;;;;;7.38;4.10;;;;;;;;;;5017578;28;20607;-51
2023/09/05 08:45:19;;;;;;;5.68;4.18;;;;;;;;;;5035818;28;20040;-52
2023/09/05 08:47:46;;;;;;;6.38;4.47;;;;;;;;;;5035523;28;20037;-53
2023/09/05 08:50:11;;;;;;;8.63;4.22;;;25.60;99.90;;;;;;5035198;28;20033;-52
2023/09/05 08:52:41;;;;;;;9.18;4.80;;;25.40;99.90;;;;;;5035894;28;20034;-52
2023/09/05 08:55:07;;;;;;;9.70;4.25;;;25.30;99.90;;;;;;5035814;28;20520;-51
2023/09/05 08:57:35;;;;;;;7.07;4.20;;;25.60;99.90;;;;;;4983937;28;20038;-54
2023/09/05 09:00:25;;;;;;;7.65;4.05;;;25.70;99.90;;;;;;5035571;28;20050;-52
2023/09/05 09:02:50;;;;;;;7.97;4.22;;;25.90;99.90;;;;;;4980036;28;20430;-52
2023/09/05 09:05:17;;;;;;;4.40;3.60;;;;;;;;;;4993762;28;20046;-53
2023/09/05 09:07:43;;;;;;;5.45;3.60;;;;;;;;;;4961634;28;20046;-50
2023/09/05 09:10:19;;;;;;;6.75;4.40;;;;;;;;;;4993758;28;20054;-51
2023/09/05 09:12:45;;;;;;;6.53;4.05;;;;;;;;;;4993576;28;20026;-51
2023/09/05 09:15:12;;;;;;;7.20;3.88;;;27.00;99.90;;;;;;4993465;28;20097;-51
2023/09/05 09:17:47;;;;;;;8.52;4.30;;;27.00;99.90;;;;;;4992976;28;20107;-53
2023/09/05 09:20:13;;;;;;;6.18;4.07;;;;;;;;;;4944823;28;20077;-53
2023/09/05 09:22:40;;;;;;;5.72;4.78;;;;;;;;;;4993255;28;20042;-53
2023/09/05 09:25:23;;;;;;;7.93;4.88;;;28.30;99.90;;;;;;4993349;28;20524;-52
2023/09/05 09:27:57;;;;;;;6.38;5.00;;;28.30;99.90;;;;;;4938438;28;20055;-52
2023/09/05 09:30:24;;;;;;;5.65;4.28;;;;;;;;;;4981700;28;20039;-52
2023/09/05 09:32:51;;;;;;;7.45;4.45;;;28.70;99.90;;;;;;4973931;28;20471;-52
2023/09/05 09:35:17;;;;;;;4.90;4.40;;;28.80;99.90;;;;;;4973861;28;20035;-54
2023/09/05 09:37:46;;;;;;;6.88;4.38;;;;;;;;;;4973692;28;20042;-52
2023/09/05 09:40:13;;;;;;;4.50;3.85;;;;;;;;;;4993102;28;20045;-54
2023/09/05 09:42:39;;;;;;;5.75;3.50;;;;;;;;;;5014701;28;20457;-52
2023/09/05 09:45:05;;;;;;;7.85;3.88;;;;;;;;;;5014667;28;20030;-54
2023/09/05 09:47:33;;;;;;;7.13;3.50;;;29.90;99.90;;;;;;5014590;28;20029;-53
2023/09/05 09:50:02;;;;;;;5.43;4.00;;;29.60;99.90;;;;;;4996680;28;20163;-52
2023/09/05 09:52:34;;;;;;;7.53;4.85;;;29.30;99.60;;;;;;5014632;28;20033;-51
2023/09/05 09:55:03;;;;;;;5.80;3.95;;;;;;;;;;5014714;28;20029;-52
2023/09/05 09:57:39;;;;;;;7.53;4.00;;;29.40;99.90;;;;;;4980440;28;20049;-51
2023/09/05 10:00:15;;;;;;;5.32;3.78;;;29.40;99.90;;;;;;5014457;28;20037;-51
2023/09/05 10:02:45;;;;;;;4.80;3.35;;;;;;;;;;4982542;28;20050;-51
2023/09/05 10:05:12;;;;;;;5.93;3.40;;;;;;;;;;5014822;28;20049;-54
2023/09/05 10:07:38;;;;;;;5.85;4.10;;;29.70;99.10;;;;;;5014426;28;20045;-51
2023/09/05 10:10:05;;;;;;;4.68;3.38;;;29.40;98.70;;;;;;5014455;28;20469;-53
2023/09/05 10:12:31;;;;;;;4.28;3.20;;;;;;;;;;4979839;28;20030;-54
2023/09/05 10:14:59;;;;;;;4.28;3.30;;;;;;;;;;5014198;28;20033;-51
2023/09/05 10:17:27;;;;;;;4.65;3.30;;;;;;;;;;5014651;28;20052;-52
2023/09/05 10:19:54;;;;;;;5.55;3.65;;;;;;;;;;5014507;28;20454;-52
2023/09/05 10:22:21;;;;;;;7.32;3.80;;;29.70;98.40;;;;;;5012849;28;20080;-54
2023/09/05 10:24:48;;;;;;;3.67;2.88;;;;;;;;;;5014092;28;20064;-52
2023/09/05 10:27:14;;;;;;;3.10;2.75;;;;;;;;;;5013983;28;20045;-54
2023/09/05 10:29:43;;;;;;;4.60;3.63;;;;;;;;;;5014114;28;20065;-54
2023/09/05 10:32:10;;;;;;;8.18;4.15;;;;;;;;;;5012256;28;20117;-52
2023/09/05 10:34:48;;;;;;;7.90;3.33;;;;;;;;;;5012017;28;20108;-54
2023/09/05 10:37:14;;;;;;;6.70;3.70;;;;;;;;;;5014145;28;20363;-53
2023/09/05 10:39:47;;;;;;;5.55;3.17;;;29.70;99.90;;;;;;5013989;28;20091;-51
2023/09/05 10:42:14;;;;;;;5.40;3.45;;;29.90;99.90;;;;;;5013465;28;20030;-51
2023/09/05 10:44:47;;;;;;;5.90;3.42;;;30.00;99.90;;;;;;5013709;28;20045;-51
2023/09/05 10:47:30;;;;;;;5.53;3.20;;;30.10;99.90;;;;;;5013777;28;20029;-53
2023/09/05 10:50:00;;;;;;;5.22;3.13;;;30.40;99.90;;;;;;5013973;28;20053;-52
2023/09/05 10:52:29;;;;;;;3.30;2.90;;;30.60;99.90;;;;;;5014383;28;20343;-53
2023/09/05 10:54:56;;;;;;;6.38;3.30;;;;;;;;;;5013771;28;20393;-54
2023/09/05 10:57:38;;;;;;;3.83;3.40;;;;;;;;;;5013185;28;20037;-51
2023/09/05 11:00:16;;;;;;;3.80;3.40;;;;;;;;;;5013512;28;20041;-52
2023/09/05 11:02:43;;;;;;;4.68;3.10;;;;;;;;;;5013474;28;20065;-54
2023/09/05 11:05:13;;;;;;;3.38;2.70;;;;;;;;;;5013142;28;20500;-52
2023/09/05 11:07:43;;;;;;;4.32;2.83;;;;;;;;;;5013729;28;20030;-51
2023/09/05 11:10:28;;;;;;;8.10;2.70;;;;;;;;;;5013670;28;20432;-53
2023/09/05 11:12:55;;;;;;;3.58;2.63;;;;;;;;;;5013402;28;20053;-53
2023/09/05 11:15:31;;;;;;;3.30;2.83;;;;;;;;;;5013532;28;20048;-52
2023/09/05 11:18:05;;;;;;;3.72;2.40;;;32.00;96.50;;;;;;5011480;28;20045;-54
2023/09/05 11:20:39;;;;;;;2.78;2.50;;;32.30;96.90;;;;;;5013616;28;20041;-53
2023/09/05 11:23:16;;;;;;;4.68;2.60;;;32.30;96.50;;;;;;5013551;28;20053;-53
2023/09/05 11:25:47;;;;;;;3.03;2.20;;;32.30;96.40;;;;;;5013250;28;20069;-51
2023/09/05 11:28:14;;;;;;;5.55;2.70;;;31.60;95.30;;;;;;5013412;28;20036;-51
2023/09/05 11:30:42;;;;;;;3.50;2.35;;;31.60;95.80;;;;;;5013035;28;20026;-54
2023/09/05 11:33:15;;;;;;;3.88;2.60;;;32.00;96.20;;;;;;5012927;28;20429;-53
2023/09/05 11:35:45;;;;;;;3.20;2.65;;;;;;;;;;5013246;28;20060;-52
2023/09/05 11:38:11;;;;;;;2.30;2.10;;;;;;;;;;5013070;28;20520;-53
2023/09/05 11:40:38;;;;;;;4.22;2.40;;;;;;;;;;5011466;28;20394;-54
2023/09/05 11:43:07;;;;;;;3.17;2.60;;;32.70;95.20;;;;;;4995287;28;20053;-53
2023/09/05 11:45:34;;;;;;;6.20;2.30;;;32.70;95.40;;;;;;5013046;28;20493;-53
2023/09/05 11:48:01;;;;;;;3.17;2.67;;;;;;;;;;5013114;28;20123;-54
2023/09/05 11:50:28;;;;;;;4.22;2.42;;;32.20;94.50;;;;;;4962785;28;20045;-53
2023/09/05 11:52:54;;;;;;;3.00;2.65;;;32.10;99.90;;;;;;5016092;28;20026;-54
2023/09/05 11:55:23;;;;;;;4.05;2.53;;;;;;;;;;5017232;28;20026;-54
2023/09/05 11:57:54;;;;;;;3.75;2.47;;;32.20;99.90;;;;;;5017059;28;20044;-53
2023/09/05 12:00:20;;;;;;;3.05;2.33;;;;;;;;;;5015160;28;20038;-54
2023/09/05 12:02:47;;;;;;;3.58;2.50;;;;;;;;;;5016525;28;20034;-54
2023/09/05 12:05:14;;;;;;;3.20;2.38;;;;;;;;;;4998531;28;20417;-53
2023/09/05 12:07:40;;;;;;;2.65;2.08;;;;;;;;;;5017210;28;20119;-53
2023/09/05 12:10:06;;;;;;;3.83;2.40;;;;;;;;;;5016717;28;20041;-53
2023/09/05 12:12:32;;;;;;;3.45;2.38;;;;;;;;;;5016640;28;20049;-54
2023/09/05 12:14:59;;;;;;;5.95;2.78;;;31.50;99.90;;;;;;5016559;28;20029;-52
2023/09/05 12:17:26;;;;;;;3.92;2.38;;;31.50;99.90;;;;;;5016753;28;20373;-54
2023/09/05 12:19:53;;;;;;;6.07;2.50;;;;;;;;;;5016612;28;20033;-52
2023/09/05 12:22:27;;;;;;;3.90;2.20;;;;;;;;;;5016284;28;20113;-53
2023/09/05 12:25:14;;;;;;;2.72;2.33;;;;;;;;;;5016275;28;20026;-53
2023/09/05 12:27:40;;;;;;;4.25;2.47;;;;;;;;;;5016592;28;20046;-53
2023/09/05 12:30:07;;;;;;;4.10;2.42;;;;;;;;;;5016352;28;20436;-53
2023/09/05 12:32:34;;;;;;;3.13;2.78;;;;;;;;;;4994494;28;20077;-52
2023/09/05 12:34:59;;;;;;;4.55;2.40;;;31.00;98.40;;;;;;4994377;28;20133;-53
2023/09/05 12:37:25;;;;;;;2.60;2.30;;;30.30;94.00;;;;;;4994432;28;20121;-54
2023/09/05 12:39:55;;;;;;;4.55;2.50;;;30.60;94.40;;;;;;4994305;28;20026;-54
2023/09/05 12:42:21;;;;;;;4.70;2.35;;;30.40;94.10;;;;;;4994336;28;20093;-54
2023/09/05 12:44:47;;;;;;;2.50;2.20;;;;;;;;;;4961864;28;20050;-52
2023/09/05 12:47:13;;;;;;;3.80;2.25;;;;;;;;;;4994266;28;20069;-53
2023/09/05 12:49:41;;;;;;;3.10;2.60;;;;;;;;;;4962002;28;20110;-53
2023/09/05 12:52:07;;;;;;;3.92;2.40;;;29.30;99.90;;;;;;4994064;28;20533;-53
2023/09/05 12:54:33;;;;;;;3.05;2.58;;;29.70;99.90;;;;;;4994167;28;20026;-54
2023/09/05 12:56:59;;;;;;;3.30;2.72;;;29.40;99.90;;;;;;4994045;28;20038;-53
2023/09/05 12:59:24;;;;;;;3.05;2.75;;;29.50;99.90;;;;;;4955372;29;20051;-53
2023/09/05 13:01:53;;;;;;;4.20;2.67;;;29.50;99.90;;;;;;4955124;29;20042;-53
2023/09/05 13:04:19;;;;;;;4.60;2.90;;;29.70;99.90;;;;;;4954394;28;20060;-53
2023/09/05 13:06:47;;;;;;;3.17;2.60;;;29.50;99.90;;;;;;4955178;29;20035;-53
2023/09/05 13:09:13;;;;;;;4.20;2.60;;;29.40;99.90;;;;;;4958837;28;20053;-54
2023/09/05 13:11:39;;;;;;;4.60;2.65;;;29.50;99.10;;;;;;4942244;28;20031;-54
2023/09/05 13:14:05;;;;;;;2.78;2.28;;;29.70;99.80;;;;;;4974265;28;20039;-53
2023/09/05 13:16:31;;;;;;;3.88;2.72;;;30.20;99.90;;;;;;4974338;28;20054;-52